Tiempo atmosférico en la estación meteorológica de Palacios De La Sierra, Burgos (1080 m.)



Fecha
DESCASC
Temp. máxima en grados centígrados (hora)
DESCASC
Temp. mínima en grados centígrados (hora)
DESCASC
Temp. media en grados centígrados
DESCASC
Racha de viento máxima en m/sg (hora)
DESCASC
Velocidad máxima media en intervalos de 10 minutos(hora)
DESCASC
Precipitaciones diarias en mm
DESCASC
Precipitaciones de 00:00 a 06:00 en mm
DESCASC
Precipitaciones de 06:00 a 12:00 en mm
DESCASC
Precipitaciones de 12:00 a 18:00 en mm
DESCASC
Precipitaciones de 18:00 a 24:00 en mm
DESCASC
21-02-2021 10.8 (00:00) 5.1 (23:59) 8 12.22 (05:10) 6.67 (13:40) 5.8 0 0 0.4 5.4
20-02-2021 13.3 (16:40) 4.3 (04:40) 8.8 11.67 (10:40) 5.56 (11:10) 0 0 0 0 0
19-02-2021 15.9 (15:50) 1.7 (08:00) 8.8 10 (13:20) 5.28 (17:20) 0 0 0 0 0
18-02-2021 13.5 (15:00) 0.2 (00:00) 6.9 17.22 (13:30) 8.89 (14:20) 0 0 0 0 0
17-02-2021 12.1 (16:10) 3.4 (00:00) 7.8 8.33 (16:00) 3.89 (15:50) 1 1 0 0 0
16-02-2021 13.9 (15:40) 0.2 (00:00) 7 12.5 (12:30) 7.22 (12:30) 0 0 0 0 0
15-02-2021 13.4 (15:50) -0.3 (00:00) 6.5 8.06 (19:20) 5 (17:10) 0 0 0 0 0
14-02-2021 13.8 (15:20) -1.5 (-00:0) 6.2 8.06 (14:00) 3.61 (02:20) 0 0 0 0 0
13-02-2021 9.8 (16:40) -0.7 (-00:0) 4.6 8.89 (16:10) 5 (16:10) 0 0 0 0 0
12-02-2021 8.2 (00:00) 2 (00:00) 5.1 12.5 (13:10) 7.22 (13:10) 13.2 3.8 6.6 2.8 0
11-02-2021 10.8 (15:50) -0.6 (-00:0) 5.1 5.83 (15:50) 3.06 (19:20) 5.6 0.8 2.2 2.6 0
10-02-2021 7.5 (14:40) -0.3 (00:00) 3.6 -- (--) -- (--) 8.2 8 0.2 0 0
09-02-2021 5.1 (13:50) 0.4 (00:00) 2.7 -- (--) -- (--) 29.4 4.4 8.4 11.8 4.8
08-02-2021 4.5 (15:20) 0.3 (00:00) 2.4 12.5 (15:30) 6.94 (16:40) 23.8 13.4 4.2 5.8 0.4
07-02-2021 4.9 (12:50) -2.8 (-00:0) 1.1 9.44 (12:40) 5.56 (13:50) 2.6 0 0 0.4 2.2
06-02-2021 7.9 (00:00) 2.6 (00:00) 5.3 11.67 (01:50) 5.28 (11:30) 4.8 1.8 2.8 0.2 0
05-02-2021 14.5 (14:40) 5.1 (00:00) 9.8 9.72 (16:30) 5.56 (15:20) 0.2 0.2 0 0 0
04-02-2021 11.9 (15:20) 5.3 (00:00) 8.6 10 (16:10) 5.28 (16:00) 4.4 4 0.4 0 0
03-02-2021 8.4 (15:50) 5.4 (00:00) 6.9 11.11 (11:30) 5.28 (12:00) 16.8 0 2.8 5.2 8.8
02-02-2021 9.5 (16:40) 6.8 (00:00) 8.2 10.28 (04:50) 5 (05:20) 0.6 0 0.6 0 0
01-02-2021 10.5 (14:40) 5.4 (00:00) 8 17.78 (00:10) 9.17 (00:20) 0 0 0 0 0
31-01-2021 9.4 (18:50) 3.2 (00:00) 6.3 19.44 (23:00) 9.44 (23:00) 6.2 0 2.2 4 0
30-01-2021 8.3 (00:20) 3.3 (00:00) 5.8 18.61 (05:20) 9.44 (05:20) 5.6 3.8 0.2 1.6 0
29-01-2021 11.5 (00:00) 5.7 (00:00) 8.6 13.61 (09:40) 6.67 (03:50) 0.2 0 0.2 0 0
28-01-2021 12.1 (21:20) 7.8 (00:00) 10 10 (21:30) 5.83 (21:40) 0 0 0 0 0
27-01-2021 12.4 (14:50) 7.1 (00:00) 9.7 9.17 (19:10) 5.28 (19:10) 5.2 4.8 0.4 0 0
26-01-2021 8.1 (17:20) -2.2 (-00:0) 3 5.56 (00:30) 3.33 (01:40) 2.2 0 0 1 1.2
25-01-2021 -- (--) -- (--) -- -- (--) -- (--) -- -- -- 10.4 0

Gráficas

Temp. máximas Temp. mínimas Temp. medias Precipitaciones Rachas de viento máximas Velocidades máximas media en intervalos de 10 minutos

Datos horarios

Fecha y hora oficial Temperatura (ºC) Velocidad del viento (km/h) Dirección del viento Racha (km/h) Dirección de racha Precipitación (mm) Presión (hPa) Tendencia (hPa) Humedad (%)
2021-02-23 23:00:00 3.3 6 Sur 13 Sudeste 0 908.8 0.6 82
2021-02-23 22:00:00 3.9 7 Sur 15 Sudeste 0 908.6 1.2 78
2021-02-23 21:00:00 4.3 7 Sur 13 Sur 0 908.3 1.3 76
2021-02-23 20:00:00 6.6 6 Sudeste 18 Este 0 908.2 1.5 67
2021-02-23 19:00:00 8.7 10 Sudeste 29 Sudeste 0 907.4 -- 59
2021-02-23 18:00:00 11.2 11 Sudeste 37 Sudeste 0 907 -- 49
2021-02-23 17:00:00 11.9 9 Sudeste 29 Este 0 906.7 -- 48
2021-02-23 16:00:00 11 12 Sudeste 30 Sudeste 0 906.9 -- 53
2021-02-23 15:00:00 10.9 14 Sudeste 31 Este 0 906.9 -- 52
2021-02-23 14:00:00 10.4 13 Sudeste 32 Sudeste 0 907.3 -- 51
2021-02-23 13:00:00 8.7 12 Sudeste 31 Este 0 907.5 -- 62
2021-02-23 12:00:00 5.9 14 Sudeste 31 Este 0 907.7 -- 74
2021-02-23 11:00:00 5.7 12 Sur 28 Sur 0 907.1 -- 72
2021-02-23 10:00:00 4.1 8 Sudeste 17 Sudeste 0 906.6 -- 82
2021-02-23 09:00:00 2.5 5 Sudeste 22 Sudeste 0 906 -- 87
2021-02-23 08:00:00 -0.3 8 Sur 15 Sur 0 905.3 -- 92
2021-02-23 07:00:00 -0.3 6 Sur 10 Sur 0 904.9 -- 92
2021-02-23 06:00:00 -0.1 7 Sur 14 Sudeste 0 904.4 -- 93
2021-02-23 05:00:00 -0.6 6 Sur 12 Sur 0 904 -- 93
2021-02-23 04:00:00 -0.8 4 Sur 14 Sur 0 903.4 -- 93
2021-02-23 03:00:00 -0.5 2 Sur 10 Sur 0 903.2 -- 91
2021-02-23 02:00:00 0.5 5 Este 10 Sur 0 902.8 -- 92
2021-02-23 01:00:00 0 7 Sur 12 Sur 0 902.3 -- 92
2021-02-23 00:00:00 0.7 8 Sur 11 Sur 0 901.7 -- 90
2021-02-22 23:00:00 1.5 3 Sur 10 Sur 0 901.1 -- 87
2021-02-22 22:00:00 2.7 3 Sudeste 13 Sur 0 900.3 -- 85
2021-02-22 21:00:00 3.2 7 Sur 10 Sudeste 0 899.9 -- 81
2021-02-22 20:00:00 4.1 2 Norte 16 Norte 0 899.3 -- 78
2021-02-22 19:00:00 4.2 10 Oeste 23 Oeste 0 898.4 -- 78
2021-02-22 18:00:00 4.4 17 Oeste 37 Oeste 0 897.5 -- 75
2021-02-22 17:00:00 5.1 20 Oeste 36 Oeste 0 896.5 -- 73
2021-02-22 16:00:00 4.8 20 Oeste 40 Oeste 0 895.6 -- 77
2021-02-22 15:00:00 4.8 21 Oeste 39 Oeste 0 894.9 -- 79
2021-02-22 14:00:00 5.2 23 Oeste 36 Noroeste 0 894.6 -- 80
2021-02-22 13:00:00 4.4 19 Oeste 37 Oeste 0 894.5 -- 83
2021-02-22 12:00:00 3.3 19 Oeste 39 Oeste 0 894.3 -- 88
2021-02-22 11:00:00 2 20 Oeste 37 Oeste 0 893.6 -- 91
2021-02-22 10:00:00 1.3 23 Oeste 39 Oeste 0 892.6 -- 90
2021-02-22 09:00:00 0.8 21 Oeste 44 Oeste 0.2 891.3 -- 91
2021-02-22 08:00:00 1 24 Oeste 42 Oeste 0.2 890 -- 90
2021-02-22 07:00:00 1.2 22 Oeste 41 Oeste 0.2 888.9 2 89
2021-02-22 06:00:00 0.9 19 Oeste 39 Oeste 0.2 887.9 -- 91
2021-02-22 05:00:00 0.5 5 Oeste 15 Oeste 0.8 887.2 -- 92
2021-02-22 04:00:00 0.5 3 Este 19 Sudoeste 2 886.9 -- 91
2021-02-22 03:00:00 1.8 6 Sudoeste 18 Sudoeste 0.8 886.6 -- 87
2021-02-22 02:00:00 3.2 10 Oeste 21 Oeste 1.2 886.3 -- 88
2021-02-22 01:00:00 3.8 13 Oeste 27 Sudoeste 2.6 885.9 -- 87
2021-02-22 00:00:00 5.1 12 Sudoeste 24 Sur 1 885.4 -- 86
2021-02-21 23:00:00 5.3 8 Este 14 Sudeste 1.2 884.8 -- 88
2021-02-21 22:00:00 5.8 7 Sudeste 27 Este 0.4 884.7 1 86
2021-02-21 21:00:00 6.8 11 Sudeste 22 Sudeste 0.4 884.2 -- 81
2021-02-21 20:00:00 6.8 7 Sur 34 Sudeste 0.8 883.9 -- 86
2021-02-21 19:00:00 7.3 13 Sudeste 33 Sudeste 1.6 883.7 -- 85
2021-02-21 18:00:00 8 14 Sudeste 27 Sudeste 0 882.8 -- 79
2021-02-21 17:00:00 7.9 11 Este 27 Este 0.4 883.3 -- 81
2021-02-21 16:00:00 9 15 Sudeste 35 Sudeste 0 883.3 -- 66
2021-02-21 15:00:00 9.5 19 Este 33 Este 0 883.5 -- 61
2021-02-21 14:00:00 9.6 22 Este 40 Sudeste 0 883.8 -- 59
2021-02-21 13:00:00 10 15 Sudeste 38 Este 0 884 -- 52
2021-02-21 12:00:00 8.8 19 Este 31 Este 0 884.8 -- 58
2021-02-21 11:00:00 8.2 20 Este 31 Este 0 885.4 -- 58
2021-02-21 10:00:00 7.6 9 Sudeste 20 Sudeste 0 885.4 -- 57
2021-02-21 09:00:00 7.3 9 Sudeste 25 Sudeste 0 885.5 -- 55
2021-02-21 08:00:00 7.6 6 Sudeste 27 Sudeste 0 885.5 -- 52
2021-02-21 07:00:00 8.1 8 Sudeste 35 Sudeste 0 885.8 -- 49
2021-02-21 06:00:00 8 12 Sudeste 44 Sudeste 0 886 -- 51
2021-02-21 05:00:00 8.2 23 Sudeste 43 Sudeste 0 886 -- 52
2021-02-21 04:00:00 8.3 10 Sudeste 29 Sudeste 0 887.3 -- 52
2021-02-21 03:00:00 8.7 9 Sudeste 32 Sudeste 0 887.5 -- 54
2021-02-21 02:00:00 9.3 16 Sudeste 37 Sudeste 0 887.7 -- 52
2021-02-21 01:00:00 10 19 Sudeste 38 Sudeste 0 887.6 -- 48
2021-02-21 00:00:00 10.8 14 Sudeste 30 Sudeste 0 888.1 -- 35
2021-02-20 23:00:00 10.1 13 Sudeste 21 Sudeste 0 888.7 -- 37
2021-02-20 22:00:00 10.9 12 Sudeste 34 Sudeste 0 888.9 -- 33
2021-02-20 21:00:00 11.5 12 Sudeste 39 Sudeste 0 889.1 -- 33
2021-02-20 20:00:00 11.6 12 Sudeste 33 Sudeste 0 889.2 -- 33
2021-02-20 19:00:00 10.9 12 Este 31 Sudeste 0 889.1 -- 38
2021-02-20 18:00:00 11.6 19 Sudeste 41 Sudeste 0 888.5 -- 34
2021-02-20 17:00:00 12.7 9 Sudeste 26 Sudeste 0 889 -- 32
2021-02-20 16:00:00 12.5 13 Sudeste 30 Sur 0 888.9 -- 34
2021-02-20 15:00:00 12.9 14 Sur 41 Sur 0 889.4 -- 29
2021-02-20 14:00:00 12.8 17 Sudeste 39 Sudeste 0 889.5 -- 31
2021-02-20 13:00:00 12.6 16 Sudeste 35 Sudeste 0 890.2 -- 37
2021-02-20 12:00:00 11.3 15 Sudeste 40 Sur 0 890.4 -- 47
2021-02-20 11:00:00 11 18 Sudeste 42 Sudeste 0 891 -- 46
2021-02-20 10:00:00 9.1 13 Sudeste 37 Sudeste 0 890.8 -- 49
2021-02-20 09:00:00 5.8 6 Sudeste 24 Este 0 890.7 0 59
2021-02-20 08:00:00 5.8 11 Sudeste 22 Sudeste 0 890.4 -- 61
2021-02-20 07:00:00 5 13 Este 22 Sudeste 0 890.9 -- 62
2021-02-20 06:00:00 5 8 Sudeste 12 Este 0 890.7 -- 62
2021-02-20 05:00:00 4.4 6 Sur 13 Sur 0 891 -- 61
2021-02-20 04:00:00 4.9 6 Sur 12 Sur 0 891.4 -1.1 58
2021-02-20 03:00:00 5.6 6 Sudeste 14 Sudeste 0 891.8 -- 57
2021-02-20 02:00:00 5.7 3 Sur 11 Sudeste 0 892.3 -- 57
2021-02-20 01:00:00 5.4 7 Este 14 Este 0 892.5 -- 59
2021-02-20 00:00:00 4.9 8 Sur 16 Sur 0 892.8 -- 59
2021-02-19 23:00:00 6.1 6 Sudeste 12 Sudeste 0 893.3 -0.3 55
2021-02-19 22:00:00 6.5 5 Sur 12 Sudeste 0 893.5 -- 55
2021-02-19 21:00:00 8.4 4 Sudeste 9 Sudoeste 0 893.4 -- 47
2021-02-19 20:00:00 10 0 Calma 16 Sudoeste 0 893.6 -- 44
2021-02-19 19:00:00 11.4 6 Sur 24 Oeste 0 893.1 -- 40
2021-02-19 18:00:00 13.4 11 Sudoeste 33 Sudoeste 0 893 -- 35
2021-02-19 17:00:00 15 15 Sudoeste 33 Sur 0 892.9 -1.1 31
2021-02-19 16:00:00 15.5 13 Sudoeste 31 Sudoeste 0 892.8 -- 29
2021-02-19 15:00:00 14.8 11 Sur 32 Sudoeste 0 893.2 -- 31
2021-02-19 14:00:00 14 9 Sudoeste 36 Sudoeste 0 894 -- 31
2021-02-19 13:00:00 12.9 14 Sudoeste 33 Sudoeste 0 894.8 -- 33
2021-02-19 12:00:00 11.8 14 Sudoeste 33 Oeste 0 895.1 -- 39
2021-02-19 11:00:00 10.5 12 Sudoeste 26 Sudoeste 0 895.6 -- 44
2021-02-19 10:00:00 6.8 2 Sudeste 11 Sur 0 895.5 -- 66
2021-02-19 09:00:00 2.4 5 Sur 14 Sur 0 895.5 -- 82
2021-02-19 08:00:00 1.7 11 Sur 19 Sur 0 895.1 -- 84
2021-02-19 07:00:00 3.1 9 Sur 15 Sur 0 895 -- 79
2021-02-19 06:00:00 4.6 8 Sur 16 Sur 0 895.1 -- 71
2021-02-19 05:00:00 5.8 4 Sudoeste 9 Sudeste 0 895.1 -- 67
2021-02-19 04:00:00 6.8 6 Sudeste 10 Sur 0 895.2 -- 60
2021-02-19 03:00:00 6.3 5 Sur 17 Sudoeste 0 895.5 -- 65
2021-02-19 02:00:00 6.7 5 Sudoeste 19 Sur 0 895.6 -- 65
2021-02-19 01:00:00 7.2 7 Sur 15 Sudeste 0 895.6 -- 68
2021-02-19 00:00:00 7.2 6 Sur 17 Sudoeste 0 895.9 -- 71
2021-02-18 23:00:00 7.2 5 Sur 15 Sur 0 895.8 -- 70
2021-02-18 22:00:00 7.8 9 Oeste 19 Sur 0 895.6 -- 64
2021-02-18 21:00:00 6.7 7 Sur 13 Oeste 0 895.3 -- 67
2021-02-18 20:00:00 8.7 6 Oeste 20 Oeste 0 894.6 -- 60
2021-02-18 19:00:00 9.7 10 Oeste 27 Oeste 0 894.4 -- 55
2021-02-18 18:00:00 10.7 12 Oeste 38 Oeste 0 894 -- 53
2021-02-18 17:00:00 11.4 18 Oeste 51 Oeste 0 893.8 -- 49
2021-02-18 16:00:00 12.6 29 Oeste 54 Sudoeste 0 893.5 -- 37
2021-02-18 15:00:00 12.9 21 Oeste 60 Oeste 0 893.7 -- 32
2021-02-18 14:00:00 12.3 26 Oeste 62 Oeste 0 893.8 -- 34
2021-02-18 13:00:00 12.4 18 Oeste 54 Sudoeste 0 894.5 -- 37
2021-02-18 12:00:00 11.2 16 Sudoeste 35 Sudoeste 0 894.7 -- 38
2021-02-18 11:00:00 5.8 4 Sudeste -- -- 0 894.6 -- 73
2021-02-18 10:00:00 2.4 0 Calma 11 Sur 0 894.5 -- 88
2021-02-18 09:00:00 0.4 0 Calma 18 Sur 0 894.2 -- 89
2021-02-18 08:00:00 0.3 17 Sur 22 Sur 0 893.5 -- 89
2021-02-18 07:00:00 0.7 9 Sur 19 Sur 0 893.8 -- 88
2021-02-18 06:00:00 2 10 Sur 23 Sur 0 893.8 -- 83
2021-02-18 05:00:00 3.5 12 Sur 22 Sur 0 893.9 -- 78
2021-02-18 04:00:00 4.8 9 Sur 14 Sur 0 894.2 -- 75
2021-02-18 03:00:00 2.1 12 Sur 16 Sur 0 894.4 -- 88
2021-02-18 02:00:00 3.4 10 Sur 21 Sur 0 894.5 -- 85
2021-02-18 01:00:00 3.7 10 Sur 22 Sur 0 895 -- 88
2021-02-18 00:00:00 3.4 4 Sudeste 16 Este 0 895.5 -- 88
2021-02-17 23:00:00 3.8 4 Sudeste 12 Sur 0 895.7 -- 90
2021-02-17 22:00:00 4.3 4 Sudeste 15 Sur 0 895.7 -- 87
2021-02-17 21:00:00 5.8 5 Sur 11 Sur 0 895.8 -- 83
2021-02-17 20:00:00 7.3 5 Sur 8 Sur 0 895.9 -- 77
2021-02-17 19:00:00 9.6 2 Sur 15 Noroeste 0 895.9 -- 67
2021-02-17 18:00:00 11.6 10 Oeste 25 Noroeste 0 896.2 -- 61
2021-02-17 17:00:00 11.8 11 Oeste 24 Sudoeste 0 896.6 -- 60
2021-02-17 16:00:00 11.9 12 Oeste 30 Oeste 0 896.9 -- 63
2021-02-17 15:00:00 11.6 10 Sudoeste 29 Sudoeste 0 897.4 -- 64
2021-02-17 14:00:00 10.6 13 Sudoeste 28 Sudoeste 0 898.3 -- 68
2021-02-17 13:00:00 10 12 Sudoeste 22 Sudoeste 0 898.9 -- 71
2021-02-17 12:00:00 9.7 5 Sudoeste 13 Sudeste 0 899.3 -- 77
2021-02-17 11:00:00 8.9 5 Sur 12 Sudeste 0 899.9 -- 80
2021-02-17 10:00:00 7.1 3 Nordeste 5 Este 0 899.9 -- 87
2021-02-17 09:00:00 5.7 4 Este 6 Sudeste 0 899.7 -- 91
2021-02-17 08:00:00 5.7 3 Sur 9 Sudoeste 0 899.5 -- 89
2021-02-17 07:00:00 6.2 8 Sudoeste 14 Oeste 0 899.6 -- 89
2021-02-17 06:00:00 6.1 4 Sudoeste 12 Oeste 0 899.8 -- 90
2021-02-17 05:00:00 6.5 6 Oeste 13 Oeste 0 900 -- 88
2021-02-17 04:00:00 6.9 5 Sudoeste 18 Sudoeste 0.8 900.2 -- 87
2021-02-17 03:00:00 7.1 5 Sudoeste 13 Oeste 0.2 900.5 -- 87
2021-02-17 02:00:00 7.3 6 Oeste 17 Oeste 0 900.7 -- 84
2021-02-17 01:00:00 7.5 8 Oeste 21 Oeste 0 901.1 -- 81
2021-02-17 00:00:00 7.9 11 Oeste 26 Oeste 0 901.3 -- 79
2021-02-16 23:00:00 8 13 Oeste 25 Oeste 0 901.3 -- 76
2021-02-16 22:00:00 8.2 12 Oeste 25 Sudoeste 0 901.3 -- 72
2021-02-16 21:00:00 8.7 13 Oeste 26 Oeste 0 901.1 -- 70
2021-02-16 20:00:00 9.2 9 Oeste 21 Oeste 0 900.9 -- 67
2021-02-16 19:00:00 9.7 11 Oeste 35 Noroeste 0 900.7 -- 64
2021-02-16 18:00:00 10.5 13 Oeste 37 Oeste 0 900.6 -- 58
2021-02-16 17:00:00 11.5 13 Oeste 41 Oeste 0 900.5 -- 51
2021-02-16 16:00:00 12.6 23 Oeste 42 Noroeste 0 900.4 -- 44
2021-02-16 15:00:00 12.4 16 Oeste -- -- 0 900.9 -- 52
2021-02-16 14:00:00 11.7 19 Oeste 32 Oeste 0 901.2 -- 53
2021-02-16 13:00:00 11.9 21 Oeste 45 Noroeste 0 901.5 -- 50
2021-02-16 12:00:00 12.1 15 Oeste 32 Oeste 0 901.6 -- 48
2021-02-16 11:00:00 7.4 5 Sudeste 13 Sudeste 0 901.5 -- 75
2021-02-16 10:00:00 4 5 Sudeste 12 Sudeste 0 901.6 -- 83
2021-02-16 09:00:00 0.3 10 Sur 15 Sur 0 901.6 -- 88
2021-02-16 08:00:00 1.4 10 Sudeste 20 Sudeste 0 901.1 -- 91
2021-02-16 07:00:00 2.7 11 Sudeste 21 Sudeste 0 901.2 -- 86
2021-02-16 06:00:00 2.9 13 Sudeste 28 Este 0 901.6 -- 86
2021-02-16 05:00:00 3.6 10 Sudeste 19 Sudeste 0 901.8 -- 85
2021-02-16 04:00:00 4.2 10 Sudeste 20 Sudeste 0 902.3 -- 84
2021-02-16 03:00:00 4.6 10 Sudeste 18 Sudeste 0 902.9 -- 84
2021-02-16 02:00:00 4.9 13 Sudeste 18 Sudeste 0 903.4 -- 84
2021-02-16 01:00:00 5 12 Sudeste 19 Sudeste 0 903.8 -- 83
2021-02-16 00:00:00 5.4 12 Sudeste 20 Este 0 904.2 -- 81
2021-02-15 23:00:00 6 13 Sudeste 17 Este 0 904.2 -- 78
2021-02-15 22:00:00 6.4 10 Sudeste 22 Este 0 904.4 -- 75
2021-02-15 21:00:00 6.8 12 Sudeste 19 Este 0 904.4 -- 74
2021-02-15 20:00:00 8.2 14 Sudeste 29 Sudeste 0 904.6 -- 69
2021-02-15 19:00:00 9.4 16 Sudeste 27 Este 0 903.9 -- 68
2021-02-15 18:00:00 10.8 18 Sudeste 28 Sudeste 0 903.8 -- 64
2021-02-15 17:00:00 12.1 12 Sudeste 26 Sudeste 0 904 -- 59
2021-02-15 16:00:00 13.3 10 Sudeste 24 Sur 0 904.2 -- 49
2021-02-15 15:00:00 13 12 Sur 25 Sudeste 0 904.7 -- 51
2021-02-15 14:00:00 11.8 13 Sur 23 Sudeste 0 905.4 -- 57
2021-02-15 13:00:00 10.3 11 Sur 23 Sudeste 0 906.4 -- 63
2021-02-15 12:00:00 8.3 10 Sur 21 Sudeste 0 906.8 -- 72
2021-02-15 11:00:00 6.5 8 Sur 17 Sudeste 0 906.9 -- 80
2021-02-15 10:00:00 3.7 9 Este 14 Este 0 906.8 -- 87
2021-02-15 09:00:00 1.4 11 Este 14 Este 0 906.5 -- 92
2021-02-15 08:00:00 0.1 5 Sudeste 13 Sur 0 906 -- 93
2021-02-15 07:00:00 0 13 Sur 17 Sur 0 906 -- 93
2021-02-15 06:00:00 1.1 10 Sur 17 Sur 0 905.9 -- 92
2021-02-15 05:00:00 0.3 11 Sur 17 Sur 0 905.9 -- 93
2021-02-15 04:00:00 1.2 10 Sur 17 Sur 0 905.9 -- 92
2021-02-15 03:00:00 2.1 11 Sur 23 Sur 0 906.1 -- 92
2021-02-15 02:00:00 2.6 10 Sur 14 Sur 0 906.2 -- 90
2021-02-15 01:00:00 2.8 8 Sur 15 Sur 0 906 -- 91
2021-02-15 00:00:00 3.3 7 Sur 13 Sur 0 906 -- 89
2021-02-14 23:00:00 4.5 5 Sudeste 16 Este 0 905.7 -- 86
2021-02-14 22:00:00 5.6 8 Sur 18 Sudeste 0 905.5 -- 82
2021-02-14 21:00:00 7.1 10 Sudeste 15 Este 0 905.3 -- 75
2021-02-14 20:00:00 7.5 4 Este 9 Sudeste 0 905.1 -- 73
2021-02-14 19:00:00 9.6 6 Sudeste 18 Este 0 904.5 0.7 66
2021-02-14 18:00:00 11.6 8 Sudeste 16 Sudeste 0 904.2 0.2 58
2021-02-14 17:00:00 12.7 7 Sudeste 20 Sudeste 0 904 -- 53
2021-02-14 16:00:00 13.4 9 Sudeste 20 Sudeste 0 903.8 -- 45
2021-02-14 15:00:00 13.5 8 Sudeste 23 Sur 0 904 -- 48
2021-02-14 14:00:00 12.9 13 Sur 29 Sur 0 904.2 -- 49
2021-02-14 13:00:00 12.3 9 Sur 21 Este 0 904.4 -- 53
2021-02-14 12:00:00 10.1 3 Nordeste 9 Este 0 904.9 -- 68
2021-02-14 11:00:00 6.9 3 Sudeste 8 Sur 0 904.8 -- 80
2021-02-14 10:00:00 2.9 3 Este 17 Este 0 904.8 -- 88
2021-02-14 09:00:00 -0.3 5 Sur 10 Sur 0 904.6 -- 94
2021-02-14 08:00:00 -0.6 3 Sudeste 9 Sur 0 904.1 -- 94
2021-02-14 07:00:00 -1.4 4 Sudeste 10 Sur 0 903.7 -- 94
2021-02-14 06:00:00 -1.3 5 Sudeste 16 Este 0 903.3 -- 94
2021-02-14 05:00:00 -0.8 5 Sudeste 12 Sur 0 903.2 -- 94
2021-02-14 04:00:00 -1 0 Calma 13 Sur 0 903.7 -- 93
2021-02-14 03:00:00 -0.2 10 Sur 18 Sur 0 903.8 -- 93
2021-02-14 02:00:00 0.3 5 Sudeste 8 Sudeste 0 903.4 -- 92
2021-02-14 01:00:00 0.9 3 Sudeste 10 Sudeste 0 903.6 -- 91
2021-02-14 00:00:00 1.5 5 Sudeste 13 Sur 0 903.8 -- 91
2021-02-13 23:00:00 1.9 4 Este 9 Sur 0 903.8 -- 89
2021-02-13 22:00:00 3.2 3 Nordeste 7 Sudoeste 0 903.8 -- 85
2021-02-13 21:00:00 5.6 4 Oeste 12 Oeste 0 903.3 -- 79
2021-02-13 20:00:00 6.7 3 Norte 24 Oeste 0 903.1 -- 75
2021-02-13 19:00:00 7.2 12 Oeste 27 Oeste 0 902.9 -- 73
2021-02-13 18:00:00 7.8 14 Oeste 25 Noroeste 0 902.3 -- 69
2021-02-13 17:00:00 8.5 12 Oeste 32 Oeste 0 902 -- 66
2021-02-13 16:00:00 9.1 15 Noroeste 30 Noroeste 0 901.6 -- 63
2021-02-13 15:00:00 8.2 14 Noroeste 24 Noroeste 0 901.9 -- 66
2021-02-13 14:00:00 7.4 11 Noroeste 21 Oeste 0 902 -- 73
2021-02-13 13:00:00 6.9 11 Noroeste 20 Noroeste 0 902.4 -- 81
2021-02-13 08:00:00 0.1 2 Sudoeste 6 Oeste 0 901.1 0.7 95
2021-02-13 07:00:00 0 4 Sur 11 Sur 0 901 0.4 95
2021-02-13 06:00:00 0 7 Sur 12 Sur 0 901 0.3 94
2021-02-13 05:00:00 -0.2 7 Sur 11 Sur 0 900.4 -0.1 94
2021-02-13 04:00:00 -0.4 3 Sudeste 9 Sur 0 900.6 0.3 94
2021-02-13 03:00:00 -0.5 0 Calma 14 Sur 0 900.7 0.5 93
2021-02-13 02:00:00 0.1 4 Sudoeste 11 Sur 0 900.5 0.4 93
2021-02-13 01:00:00 1.2 0 Calma 17 Este 0 900.3 0.5 92
2021-02-13 00:00:00 2 2 Noroeste 8 Oeste 0 900.2 0.7 90
2021-02-12 23:00:00 3.9 2 Noroeste 10 Oeste 0 900.1 1.1 86
2021-02-12 22:00:00 3.8 6 Sudoeste 16 Sur 0 899.8 1.7 87
2021-02-12 21:00:00 4.7 4 Oeste 14 Noroeste 0 899.5 1.8 86
2021-02-12 20:00:00 5.2 3 Oeste 19 Noroeste 0 899 1.5 84
2021-02-12 19:00:00 6 13 Oeste 28 Oeste 0 898.1 1.2 84
2021-02-12 18:00:00 6.5 11 Oeste 22 Noroeste 0.2 897.7 1 85
2021-02-12 17:00:00 6.5 8 Oeste 32 Noroeste 1.2 897.5 1 84
2021-02-12 16:00:00 7.4 12 Noroeste 36 Oeste 0.6 896.9 0.8 86
2021-02-12 15:00:00 7.3 13 Oeste 36 Noroeste 0.2 896.7 1.2 86
2021-02-12 14:00:00 6.5 23 Oeste 45 Oeste 0 896.5 1.6 86
2021-02-12 13:00:00 6.3 19 Oeste 37 Oeste 0.6 896.1 1.9 89
2021-02-12 12:00:00 6.1 16 Oeste 37 Oeste 0.8 895.5 1.5 87
2021-02-12 11:00:00 6.2 21 Oeste 41 Oeste 0.8 894.9 1.5 89
2021-02-12 10:00:00 6.1 9 Oeste 21 Oeste 1.4 894.2 1.5 92
2021-02-12 09:00:00 6.1 13 Noroeste 43 Oeste 0.2 894 -- 90
2021-02-12 08:00:00 6.6 23 Oeste 44 Oeste 2 893.4 -- 86
2021-02-12 07:00:00 7 14 Oeste 36 Oeste 1.4 892.7 -- 90
2021-02-12 06:00:00 7.2 13 Oeste 29 Noroeste 1.6 892.8 -- 89
2021-02-12 05:00:00 7.2 15 Oeste 36 Sudoeste 1.8 893.3 -- 86
2021-02-12 04:00:00 7.3 8 Oeste 17 Sudeste 0.4 893.5 -- 86
2021-02-12 03:00:00 7.6 5 Sur 17 Sur 0 893.3 -- 85
2021-02-12 02:00:00 7.2 2 Sudoeste 9 Sur 0 893.8 -- 89
2021-02-12 01:00:00 7.7 4 Sur 9 Sudeste 0 893.9 -- 90
2021-02-12 00:00:00 8.2 4 Sudeste 18 Sur 0 894.3 -- 90
2021-02-11 23:00:00 8.7 8 Sur 18 Sudoeste 0 894.8 -- 88
2021-02-11 22:00:00 8.3 9 Sur 17 Sur 0 895.1 -- 92
2021-02-11 21:00:00 8.5 3 Sudoeste 17 Oeste 0 895.4 -- 90
2021-02-11 20:00:00 9.4 10 Oeste 18 Oeste 0 895 -- 88
2021-02-11 19:00:00 9.4 8 Sudoeste 15 Sudoeste 0 894.6 -- 88
2021-02-11 18:00:00 9.5 3 Sur 21 Oeste 1 894.7 -- 89
2021-02-11 17:00:00 9.8 9 Oeste 18 Oeste 0 895 -- 86
2021-02-11 16:00:00 10.7 7 Oeste 21 Oeste 0 895.1 -- 83
2021-02-11 15:00:00 8.4 6 Este 10 Nordeste 0.8 895.4 -- 92
2021-02-11 14:00:00 7.8 3 Este 11 Este 0.6 895.9 -- 93
2021-02-11 13:00:00 6.6 6 Este 9 Este 0.2 896.3 -- 93
2021-02-11 12:00:00 6.1 2 Oeste 11 Oeste 0.2 896.3 -- 94
2021-02-11 11:00:00 4.6 2 Este 5 Nordeste 0.8 896.2 -- 94
2021-02-11 10:00:00 3.6 3 Sudeste -- -- 0.4 895.8 -- 94
2021-02-11 09:00:00 3 3 Este 10 Sur 0.2 895.4 -- 94
2021-02-11 08:00:00 2.5 6 Sur 11 Norte 0.4 895.1 -- 94
2021-02-11 07:00:00 2.1 0 Calma 8 Este 0.2 895.1 -- 94
2021-02-11 06:00:00 1.7 4 Este 14 Este 0.4 894.7 -- 94
2021-02-11 05:00:00 1.4 0 Calma 12 Sur 0.4 894.8 -- 93
2021-02-11 04:00:00 1.1 2 Nordeste 10 Este 0 895.2 -- 93
2021-02-11 03:00:00 0.6 2 Sudeste 10 Sur 0 895.1 -- 92
2021-02-11 02:00:00 0 2 Sudeste 13 Sur 0 894.9 -- 93
2021-02-11 01:00:00 -0.6 0 Calma 9 Sudeste 0 894.5 -- 92
2021-02-11 00:00:00 -0.3 5 Sudeste 15 Sudeste 0 894 -- 90
2021-02-10 23:00:00 0.8 4 Sudeste 11 Sur 0 893.8 -- 90
2021-02-10 22:00:00 1.6 4 Sudeste -- -- 0 893.3 -- 88
2021-02-10 21:00:00 2.2 -- -- -- -- 0 892.8 -- 82
2021-02-10 20:00:00 4.6 4 Oeste 16 Oeste 0 892.4 -- 73
2021-02-10 19:00:00 5.6 10 Oeste 14 Oeste 0 891.9 -- 68
2021-02-10 18:00:00 6.1 6 Oeste 28 Oeste 0 891.1 -- 66
2021-02-10 17:00:00 6.2 14 Oeste 36 Noroeste 0 890.4 -- 63
2021-02-10 16:00:00 6.2 14 Oeste 48 Sudoeste 0 889.7 -- 66
2021-02-10 15:00:00 6.3 15 Noroeste 39 Oeste 0 889.3 -- 65
2021-02-10 14:00:00 6.6 19 Oeste 35 Oeste 0 889 -- 63
2021-02-10 13:00:00 4.9 14 Noroeste 34 Oeste 0 888.7 -- 71
2021-02-10 12:00:00 4.9 21 Oeste 38 Oeste 0 887.7 -- 71
2021-02-10 11:00:00 2.6 17 Noroeste 32 Noroeste 0 886.6 -- 82
2021-02-10 10:00:00 1.9 18 Oeste 39 Oeste 0 885.3 -- 86
2021-02-10 09:00:00 1.8 13 Oeste 37 Oeste 0 883.6 -- 88
2021-02-10 08:00:00 1.8 19 Oeste 40 Oeste 0 882.4 -- 89
2021-02-10 07:00:00 1.9 20 Oeste 37 Oeste 0.2 880.7 -- 88
2021-02-10 06:00:00 1.9 18 Oeste 33 Oeste 0 879.8 -- 88
2021-02-10 05:00:00 1.2 13 Oeste -- -- 1.8 878.9 -- 91
2021-02-10 04:00:00 1.7 9 Oeste 24 Oeste 2.6 878.5 -- 90
2021-02-10 03:00:00 1.6 9 Oeste 19 Oeste 2.2 879 -- 93
2021-02-10 02:00:00 0.2 5 Este -- -- 0.4 879.5 -- 93
2021-02-10 01:00:00 0.4 0 Calma 16 Noroeste 1 880 -- 92
2021-02-10 00:00:00 1 4 Noroeste 21 Oeste 1.4 879.8 -- 91
2021-02-09 23:00:00 1.8 11 Oeste 36 Sur 0.2 879.9 -- 90
2021-02-09 22:00:00 1 9 Sur 21 Sur 0.8 879.5 -- 90
2021-02-09 21:00:00 1.4 7 Sur 18 Sudoeste 1 879.6 -- 90
2021-02-09 20:00:00 1.9 -- -- -- -- 1.4 879.5 -- 89
2021-02-09 19:00:00 2.6 9 Sur -- -- 0 879.4 -- 86
2021-02-09 18:00:00 2.5 12 Oeste 29 Oeste 0 879.2 -- 86
2021-02-09 17:00:00 2.4 13 Oeste -- -- 0 878.8 -- 90
2021-02-09 16:00:00 1.9 5 Sudoeste 23 Sudoeste 1 878.6 -- 91
2021-02-09 15:00:00 1.5 18 Oeste 52 Sudoeste 4.6 878.5 -- 89
2021-02-09 14:00:00 5 26 Oeste -- -- 4.2 877.6 -- 84
2021-02-09 13:00:00 4.4 5 Este 14 Este 2 877.8 -- 91
2021-02-09 12:00:00 3.4 8 Este 13 Este 1.6 879 -- 91
2021-02-09 11:00:00 3 6 Este 14 Sudeste 0.8 879.5 -- 91
2021-02-09 10:00:00 1.7 9 Este 20 Este 0.8 880.3 -- 93
2021-02-09 09:00:00 1.4 6 Este 18 Sudeste 1.8 880.9 -- 92
2021-02-09 08:00:00 1.3 7 Sudeste 28 Sudeste 2.2 881.7 -- 91
2021-02-09 07:00:00 0.5 4 Sudeste 11 Este 1.2 882.2 -- 92
2021-02-09 06:00:00 0.9 5 Sur 28 Sudoeste 1.6 882.7 -- 90
2021-02-09 05:00:00 1.7 10 Sudoeste 45 Oeste 1.6 882.9 -- 88
2021-02-09 04:00:00 3.3 20 Oeste 45 Oeste 0.4 883.1 -- 85
2021-02-09 03:00:00 3.7 17 Oeste 38 Oeste 0.2 883.6 -- 86
2021-02-09 02:00:00 4 17 Oeste 40 Oeste 0.4 883.5 -- 88
2021-02-09 01:00:00 4.1 18 Oeste 33 Oeste 0.2 883.2 -- 88
2021-02-09 00:00:00 3.9 13 Oeste 30 Oeste 0 883.2 -- 89
2021-02-08 23:00:00 3.5 13 Oeste 33 Oeste 0 882.9 -- 88
2021-02-08 22:00:00 3.5 16 Oeste 33 Oeste 0 882.6 -- 87
2021-02-08 21:00:00 3.4 17 Oeste 32 Oeste 0 881.8 -- 88
2021-02-08 20:00:00 3.4 16 Oeste 43 Oeste 0.2 881.4 -- 87
2021-02-08 19:00:00 3.5 15 Oeste 36 Oeste 0.2 880.4 -- 87
2021-02-08 18:00:00 3.8 19 Oeste 39 Oeste 0.2 879.5 -- 87
2021-02-08 17:00:00 3.6 11 Oeste 42 Oeste 1.6 879.2 -- 88
2021-02-08 16:00:00 4.3 15 Oeste 45 Oeste 1.2 878.8 -- 85
2021-02-08 15:00:00 3.8 21 Oeste 44 Noroeste 2.2 878.6 -- 87
2021-02-08 14:00:00 4.1 14 Oeste 40 Oeste 0.2 878.9 -- 87
2021-02-08 13:00:00 3.8 17 Oeste 35 Sudoeste 0.4 879.2 -- 88
2021-02-08 12:00:00 3.3 16 Oeste 32 Oeste 0.8 879.5 -- 89
2021-02-08 11:00:00 3.2 18 Oeste 35 Oeste 0 879.2 -- 88
2021-02-08 10:00:00 3.1 16 Oeste 40 Oeste 1.4 878.7 -- 90
2021-02-08 09:00:00 3.4 19 Oeste 37 Oeste 0.6 878.1 -- 87
2021-02-08 08:00:00 3.3 20 Oeste 41 Oeste 1.4 877.7 -- 87
2021-02-08 07:00:00 3.9 14 Oeste 37 Oeste 0 877.8 -- 89
2021-02-08 06:00:00 4.1 14 Oeste 31 Oeste 1.2 877.9 -- 92
2021-02-08 05:00:00 3.1 8 Oeste 23 Oeste 1.8 878.5 -- 94
2021-02-08 04:00:00 2 4 Oeste 29 Oeste 3.8 879.4 -- 92
2021-02-08 03:00:00 0.7 3 Oeste 15 Sudoeste 2.6 880.2 -- 94
2021-02-08 02:00:00 0.4 3 Sudeste 8 Sudeste 2.4 880.7 -- 94
2021-02-08 01:00:00 0.3 5 Sur 9 Sur 1.6 881.6 -- 94
2021-02-08 00:00:00 0.3 0 Calma 17 Este 0.4 882.3 -- 93
2021-02-07 23:00:00 0.3 3 Este 6 Este 0 883 -- 93
2021-02-07 22:00:00 0.2 0 Calma 5 Norte 0.2 883.6 -- 93
2021-02-07 21:00:00 0.2 3 Noroeste 6 Norte 0.4 884 -- 93
2021-02-07 20:00:00 0.2 3 Noroeste 7 Noroeste 0.6 884.1 -- 92
2021-02-07 19:00:00 0.5 5 Noroeste 22 Noroeste 0.6 883.8 -- 90
2021-02-07 18:00:00 2.4 9 Oeste 25 Oeste 0.4 883.5 -- 84
2021-02-07 17:00:00 3.5 14 Oeste 32 Sudoeste 0 883.2 -- 74
2021-02-07 16:00:00 4.3 12 Oeste 31 Noroeste 0 883.2 -- 66
2021-02-07 15:00:00 3.9 19 Oeste 32 Noroeste 0 883.6 -- 66
2021-02-07 14:00:00 4.4 19 Oeste 31 Oeste 0 884.1 -- 57
2021-02-07 13:00:00 3.5 19 Noroeste 34 Oeste 0 884.7 -- 61
2021-02-07 12:00:00 3.9 15 Noroeste 28 Oeste 0 885.1 -- 61
2021-02-07 11:00:00 1.9 10 Oeste 19 Oeste 0 885 -- 66
2021-02-07 10:00:00 0.8 2 Noroeste 12 Norte 0 884.9 -- 72
2021-02-07 09:00:00 -2.4 2 Este 13 Noroeste 0 884.8 -- 88
2021-02-07 08:00:00 -2.3 4 Este 29 Oeste 0 884.5 -- 84
2021-02-07 07:00:00 -2.2 3 Oeste 14 Oeste 0 884.1 -- 83
2021-02-07 06:00:00 -1.4 3 Noroeste 25 Oeste 0 884.1 -- 77
2021-02-07 05:00:00 -0.4 14 Oeste 26 Oeste 0 884.1 -- 75
2021-02-07 04:00:00 0 11 Noroeste 25 Noroeste 0 884.2 -- 75
2021-02-07 03:00:00 0.5 13 Oeste 27 Oeste 0 884.2 -- 76
2021-02-07 02:00:00 1.1 10 Oeste 21 Oeste 0 884.1 -- 76
2021-02-07 01:00:00 2.2 11 Oeste 22 Noroeste 0 884 -- 74
2021-02-07 00:00:00 2.6 11 Noroeste 23 Noroeste 0 883.9 -- 76
2021-02-06 23:00:00 3.3 8 Sudoeste 19 Sudoeste 0 883.6 -- 76
2021-02-06 22:00:00 3.6 5 Sur 13 Sudeste 0 883.3 -- 72
2021-02-06 21:00:00 3.7 3 Sudoeste 13 Sudoeste 0 882.8 -- 73
2021-02-06 20:00:00 4 5 Sur 17 Sudeste 0 882.4 -- 76
2021-02-06 19:00:00 4.9 6 Sur 20 Sudeste 0 881.9 -- 72
2021-02-06 18:00:00 6 6 Sudoeste 32 Noroeste 0 881 -- 67
2021-02-06 17:00:00 6.9 14 Norte 32 Norte 0 880.5 -- 63
2021-02-06 16:00:00 7.5 6 Sudoeste 14 Sudoeste 0 880 -- 71
2021-02-06 15:00:00 7.3 7 Noroeste 21 Noroeste 0 879.9 -- 70
2021-02-06 14:00:00 6.1 11 Oeste 21 Oeste 0 880.2 -- 80
2021-02-06 13:00:00 5.5 12 Oeste 24 Noroeste 0.2 880.6 -- 86
2021-02-06 12:00:00 5.2 11 Noroeste 29 Oeste 0.8 880.5 -- 90
2021-02-06 11:00:00 5.5 11 Oeste 21 Noroeste 0.4 879.9 -- 91
2021-02-06 10:00:00 5.3 6 Oeste 17 Este 0.2 879.7 -- 90
2021-02-06 09:00:00 5.1 8 Este 14 Este 0 879.5 -- 88
2021-02-06 08:00:00 5.4 5 Sudeste 11 Sur 1.2 879.2 -- 90
2021-02-06 07:00:00 5.7 3 Sudeste 11 Sur 0.2 879.1 -- 88
2021-02-06 06:00:00 6 4 Sudeste 15 Este 0 879.3 -- 86
2021-02-06 05:00:00 5.9 9 Sudeste 17 Sudeste 0 879.3 -- 85
2021-02-06 04:00:00 5.6 8 Sudeste 26 Este 0 879.5 -- 88
2021-02-06 03:00:00 5.8 7 Este 21 Nordeste 0.4 880 -- 88
2021-02-06 02:00:00 6.4 9 Sudeste 42 Sudeste 1.2 881.1 -- 84
2021-02-06 01:00:00 7.6 4 Sudeste 19 Este 0.2 881.6 -- 78
2021-02-06 00:00:00 7.9 12 Este 27 Este 0 881.5 -- 73
2021-02-05 23:00:00 8.5 13 Sudeste 27 Sudeste 0 881.9 -- 70
2021-02-05 22:00:00 8.1 9 Sudeste 17 Sudeste 0 881 -- 70
2021-02-05 21:00:00 8.6 7 Sudeste 15 Sudeste 0 880.8 -- 69
2021-02-05 20:00:00 8.9 9 Sudeste 22 Este 0 881 -- 70
2021-02-05 19:00:00 10.6 13 Este 26 Sudeste 0 880.8 -- 64
2021-02-05 18:00:00 12.7 14 Sudeste 30 Este 0 880.8 -- 52
2021-02-05 17:00:00 13.9 17 Sudeste 35 Este 0 881.1 -- 46
2021-02-05 16:00:00 14.5 14 Sudeste 34 Este 0 881.3 -- 46
2021-02-05 15:00:00 14.3 18 Sudeste 30 Este 0 881.8 -- 44
2021-02-05 14:00:00 14.3 11 Sudeste 31 Sudeste 0 883.1 -- 48
2021-02-05 13:00:00 13 6 Este -- -- 0 883.9 -- 55
2021-02-05 12:00:00 10.3 3 Oeste 13 Norte 0 884.7 -- 76
2021-02-05 11:00:00 9.1 0 Calma 9 Noroeste 0 885.3 -- 77
2021-02-05 10:00:00 7.3 2 Sudeste 14 Sur 0 885.8 -- 86
2021-02-05 09:00:00 5.6 0 Calma 11 Sudeste 0 886.4 -- 88
2021-02-05 08:00:00 5.6 5 Sudeste 9 Sudeste 0 886.5 -- 89
2021-02-05 07:00:00 5.7 3 Este 13 Sur 0 886.8 -- 87
2021-02-05 06:00:00 5.6 9 Sur 19 Sur 0 886.9 -- 90
2021-02-05 05:00:00 5.6 3 Sur 21 Sur 0.2 886.9 -- 89
2021-02-05 04:00:00 5.8 4 Sudeste 22 Sur 0 887 -- 88
2021-02-05 03:00:00 5.9 9 Sudeste 17 Sur 0 887.1 -- 83
2021-02-05 02:00:00 5.4 9 Sudeste 16 Este 0 888.2 -- 82
2021-02-05 01:00:00 6 10 Sudeste 18 Sudeste 0 888.5 -- 80
2021-02-05 00:00:00 5.4 8 Sudeste 17 Sudeste 0 888.6 -- 81
2021-02-04 23:00:00 6.1 13 Sudeste 19 Sudeste 0 888.3 -- 79
2021-02-04 22:00:00 6.8 10 Sudeste 14 Sudeste 0 888.1 -- 81
2021-02-04 21:00:00 7.7 5 Este 10 Este 0 888.1 -- 77
2021-02-04 20:00:00 8.7 3 Sur 12 Oeste 0 887.6 -- 73
2021-02-04 19:00:00 9.3 2 Oeste 32 Sudeste 0 887.1 -- 67
2021-02-04 18:00:00 10.5 11 Sudeste 28 Sudeste 0 886.1 -- 61
2021-02-04 17:00:00 11.1 13 Sudeste 36 Sudeste 0 885.9 -- 65
2021-02-04 16:00:00 11.7 19 Sudeste 34 Este 0 885.6 -- 62
2021-02-04 15:00:00 11.4 12 Sudeste 35 Este 0 886.2 -- 64
2021-02-04 14:00:00 10.2 16 Sudeste 31 Sur 0 886.9 -- 72
2021-02-04 13:00:00 9 12 Este 27 Este 0 888 -- 82
2021-02-04 12:00:00 8.1 17 Este 24 Este 0 888.4 -- 84
2021-02-04 11:00:00 7.3 8 Sudeste 19 Este 0 889 -- 88
2021-02-04 10:00:00 6.4 3 Este 18 Este 0 889.3 -- 91
2021-02-04 09:00:00 6 2 Sur 10 Este 0 889.3 -- 92
2021-02-04 08:00:00 5.9 7 Este 11 Este 0.2 889.2 -- 92
2021-02-04 07:00:00 6 2 Sudeste 8 Sudeste 0.2 889.5 -- 92
2021-02-04 06:00:00 6.1 0 Calma 11 Sudoeste 0.4 889.5 -- 91
2021-02-04 05:00:00 6.1 4 Sur 11 Sudoeste 0.2 889.5 -- 91
2021-02-04 04:00:00 6.4 7 Sudoeste 14 Sudoeste 0.4 889.8 -- 91
2021-02-04 03:00:00 6.5 0 Calma 12 Oeste 0.6 890.1 -- 93
2021-02-04 02:00:00 6.7 3 Sudeste 14 Oeste 1.6 890.1 -- 92
2021-02-04 01:00:00 6.9 0 Calma 4 Sur 0.8 890.4 -- 92
2021-02-04 00:00:00 7.1 3 Oeste 17 Sudoeste 0.4 890.3 -- 91
2021-02-03 23:00:00 7.1 7 Oeste 17 Oeste 2.6 890.1 -- 92
2021-02-03 22:00:00 6.8 3 Sudoeste 7 Sudeste 4.4 890 -- 92
2021-02-03 21:00:00 7 2 Sudoeste 8 Este 0.4 889.9 -- 91
2021-02-03 20:00:00 7 3 Sudeste 6 Sudoeste 0.4 889.9 -- 91
2021-02-03 19:00:00 7.2 4 Oeste 15 Sudoeste 0.6 890.2 -- 89
2021-02-03 18:00:00 7.5 8 Oeste 15 Oeste 1 890.1 -- 89
2021-02-03 17:00:00 7.6 9 Oeste 18 Oeste 0.2 890.1 -- 88
2021-02-03 16:00:00 8.3 11 Oeste 22 Oeste 0.8 890.3 -- 85
2021-02-03 15:00:00 8 12 Oeste 24 Oeste 0.4 890.3 -- 87
2021-02-03 14:00:00 7.8 8 Noroeste 27 Oeste 1.8 890.7 -- 89
2021-02-03 13:00:00 7 12 Noroeste 39 Oeste 1 890.9 -- 90
2021-02-03 12:00:00 7.9 19 Oeste 40 Oeste 0 891.4 -- 88
2021-02-03 11:00:00 7.6 15 Oeste 31 Oeste 0.2 891.2 -- 88
2021-02-03 10:00:00 7 4 Sudoeste 15 Oeste 1 890.7 -- 90
2021-02-03 09:00:00 6.3 6 Sur 13 Sudeste 1 890.3 -- 91
2021-02-03 08:00:00 6.2 2 Sudoeste 9 Sudeste 0.4 890 -- 90
2021-02-03 07:00:00 6.4 3 Sudeste 13 Sur 0.2 889.8 -- 89
2021-02-03 06:00:00 6.8 3 Sur 20 Sur 0 889.6 -- 85
2021-02-03 05:00:00 6.3 5 Sudeste 11 Sur 0 889.6 -- 83
2021-02-03 04:00:00 5.7 6 Sur 12 Sur 0 890.1 -- 86
2021-02-03 03:00:00 5.5 8 Sur 13 Sur 0 890.6 -- 86
2021-02-03 02:00:00 6.3 3 Noroeste 11 Oeste 0 890.8 -- 82
2021-02-03 01:00:00 7 4 Noroeste 16 Sudoeste 0 891.5 -- 82
2021-02-03 00:00:00 7.4 6 Oeste 18 Noroeste 0 891.5 -- 82
2021-02-02 23:00:00 7.6 8 Oeste 23 Oeste 0 891.7 -- 83
2021-02-02 22:00:00 7.4 3 Noroeste 10 Sur 0 891.8 -- 83
2021-02-02 21:00:00 7.1 7 Sudeste 11 Sudeste 0 891.7 -- 86
2021-02-02 20:00:00 7 2 Sudeste 6 Sur 0 891.8 -- 84
2021-02-02 19:00:00 7 2 Sur 12 Sudeste 0 891.7 -- 82
2021-02-02 18:00:00 9 6 Este 17 Este 0 891.4 -- 74
2021-02-02 17:00:00 9.3 4 Sudoeste 18 Oeste 0 892.2 -- 74
2021-02-02 16:00:00 9.4 6 Oeste 20 Oeste 0 892.7 -- 76
2021-02-02 15:00:00 8.9 9 Oeste 31 Oeste 0 893.5 -- 78
2021-02-02 14:00:00 9 11 Oeste 23 Sur 0 894.2 -- 81
2021-02-02 13:00:00 8.7 4 Oeste 17 Oeste 0 894.4 -- 86
2021-02-02 12:00:00 8.5 6 Oeste 15 Oeste 0 895.1 -- 84
2021-02-02 11:00:00 8.2 9 Oeste 27 Oeste 0 895.1 -- 84
2021-02-02 10:00:00 7.5 12 Oeste 33 Oeste 0.2 895 -- 89
2021-02-02 09:00:00 7.5 15 Oeste 35 Oeste 0.2 894.3 -- 88
2021-02-02 08:00:00 7.6 16 Oeste 31 Oeste 0.2 894.2 -- 90
2021-02-02 07:00:00 7.8 14 Oeste 29 Oeste 0 894.3 -- 88
2021-02-02 06:00:00 8 14 Oeste 30 Oeste 0 894.5 -- 86
2021-02-02 05:00:00 7.9 16 Sudoeste 37 Sudoeste 0 894.4 -- 87
2021-02-02 04:00:00 7.5 8 Oeste 34 Oeste 0 894.7 -- 89
2021-02-02 03:00:00 7.6 14 Oeste 32 Oeste 0 894.9 -- 89
2021-02-02 02:00:00 7.5 11 Oeste 27 Oeste 0 894.6 -- 86
2021-02-02 01:00:00 7.3 10 Oeste 23 Oeste 0 894.8 -- 84
2021-02-02 00:00:00 7.2 14 Oeste 27 Oeste 0 894.6 -- 84
2021-02-01 23:00:00 7.4 10 Sudoeste 19 Noroeste 0 894.6 -- 81
2021-02-01 22:00:00 7.9 10 Oeste 38 Oeste 0 894.5 -- 78
2021-02-01 21:00:00 8.2 14 Oeste 33 Oeste 0 894.4 -- 77
2021-02-01 20:00:00 8.5 16 Oeste 33 Oeste 0 894.2 -- 76
2021-02-01 19:00:00 8.5 15 Oeste 40 Oeste 0 893.7 -- 75
2021-02-01 18:00:00 8.7 19 Oeste 41 Oeste 0 893.3 -- 75
2021-02-01 17:00:00 8.9 19 Oeste 45 Oeste 0 893 -- 75
2021-02-01 16:00:00 9.3 20 Oeste 48 Oeste 0 891.9 -- 75
2021-02-01 15:00:00 9.8 20 Oeste 49 Oeste 0 891.8 -- 73
2021-02-01 14:00:00 8.8 17 Oeste 38 Oeste 0 892 -- 78
2021-02-01 13:00:00 7.5 18 Oeste 36 Oeste 0 892.5 -- 81
2021-02-01 12:00:00 6.7 14 Oeste 31 Oeste 0 892.5 -- 82
2021-02-01 11:00:00 6.6 15 Oeste 34 Oeste 0 891.9 -- 81
2021-02-01 10:00:00 6.1 16 Oeste 41 Oeste 0 891.3 -- 80
2021-02-01 09:00:00 5.6 20 Oeste 43 Oeste 0 890.3 -- 81
2021-02-01 08:00:00 5.6 20 Oeste 35 Oeste 0 889.6 -- 79
2021-02-01 07:00:00 5.4 13 Oeste 49 Noroeste 0 889 -- 80
2021-02-01 06:00:00 5.7 21 Oeste 50 Oeste 0 888.6 -- 78
2021-02-01 05:00:00 5.8 26 Oeste 54 Oeste 0 888 -- 78
2021-02-01 04:00:00 5.9 24 Oeste 61 Oeste 0 887.9 -- 78
2021-02-01 03:00:00 6.5 22 Oeste 58 Oeste 0 887.8 -- 77
2021-02-01 02:00:00 7.2 30 Oeste 56 Noroeste 0 887.8 -- 76
2021-02-01 01:00:00 7.6 28 Oeste 64 Oeste 0 887.8 -- 79
2021-02-01 00:00:00 7.8 32 Oeste 64 Oeste 0 887.2 -- 79
2021-01-31 23:00:00 8.1 34 Oeste 70 Oeste 0 887.5 -- 77
2021-01-31 22:00:00 8.3 23 Oeste 46 Oeste 0 887.3 -- 76
2021-01-31 21:00:00 8.7 22 Oeste 49 Oeste 0 887.3 -- 80
2021-01-31 20:00:00 9 23 Oeste 46 Sudoeste 0 887.2 -- 79
2021-01-31 19:00:00 9.4 18 Oeste 36 Oeste 0 887.4 -- 84
2021-01-31 18:00:00 8.9 14 Oeste 31 Sudoeste 0 887.3 -- 89
2021-01-31 17:00:00 8.4 14 Oeste 33 Oeste 0 888 -- 88
2021-01-31 16:00:00 8.2 19 Oeste 38 Oeste 0.2 888.2 -- 90
2021-01-31 15:00:00 7.3 14 Oeste 29 Oeste 0.8 888.5 -- 92
2021-01-31 14:00:00 7.1 13 Oeste 25 Oeste 1 889.3 -- 91
2021-01-31 13:00:00 6.1 8 Noroeste 21 Oeste 2 890.1 -- 92
2021-01-31 12:00:00 5.2 10 Oeste 18 Oeste 1.4 890.7 -- 91
2021-01-31 11:00:00 4.2 8 Noroeste 19 Oeste 0.8 890.4 -- 91
2021-01-31 10:00:00 3.6 8 Noroeste 19 Noroeste 0 890.5 -- 88
2021-01-31 09:00:00 3.4 13 Oeste 22 Noroeste 0 890.2 -- 86
2021-01-31 08:00:00 3.3 14 Oeste 32 Oeste 0 889.7 -- 83
2021-01-31 07:00:00 3.4 20 Oeste 39 Oeste 0 889.2 0.9 80
2021-01-31 06:00:00 3.5 22 Oeste 42 Oeste 0 888.8 -- 79
2021-01-31 05:00:00 3.5 23 Oeste 46 Oeste 0 888.2 -- 79
2021-01-31 04:00:00 3.7 23 Oeste 48 Noroeste 0 888.3 -- 80
2021-01-31 03:00:00 3.3 19 Oeste 47 Noroeste 0 888.3 -- 82
2021-01-31 02:00:00 3.4 22 Oeste 51 Oeste 0 888 -- 79
2021-01-31 01:00:00 3.3 22 Oeste 50 Oeste 0 887.9 -- 80
2021-01-31 00:00:00 3.4 22 Oeste 50 Oeste 0 887.8 -- 79
2021-01-30 23:00:00 3.6 28 Oeste 57 Oeste 0 887.5 -- 78
2021-01-30 22:00:00 3.6 22 Oeste 54 Noroeste 0 887.3 -- 78
2021-01-30 21:00:00 3.8 27 Oeste 51 Oeste 0 887 -- 76
2021-01-30 20:00:00 3.7 17 Oeste 49 Oeste 0 886.9 -- 84
2021-01-30 19:00:00 4.4 20 Oeste 44 Oeste 0 886.6 -- 80
2021-01-30 18:00:00 4 25 Oeste 60 Oeste 0.4 886.2 -- 84
2021-01-30 17:00:00 4.1 16 Oeste 59 Oeste 1 886.1 -- 86
2021-01-30 16:00:00 5.9 27 Oeste 108 Oeste 0 886.1 -- 67
2021-01-30 15:00:00 5.2 23 Oeste 48 Oeste 0.2 886.7 -- 72
2021-01-30 14:00:00 5.6 24 Oeste 50 Oeste 0 887.4 -- 69
2021-01-30 13:00:00 6.3 23 Oeste 62 Oeste 0 888 -- 65
2021-01-30 12:00:00 6.7 28 Oeste 62 Oeste 0 888.4 -- 65
2021-01-30 11:00:00 5.5 26 Oeste 63 Oeste 0 888.3 -- 77
2021-01-30 10:00:00 5.5 23 Oeste 49 Oeste 0 888.6 -- 80
2021-01-30 09:00:00 5.4 18 Oeste 38 Oeste 0 888.1 -- 83
2021-01-30 08:00:00 5.6 17 Oeste 41 Sudoeste 0.2 888.4 -- 87
2021-01-30 07:00:00 5.7 19 Oeste 42 Sudoeste 0 888.9 -- 85
2021-01-30 06:00:00 5.5 14 Oeste 67 Oeste 2.6 888.9 -- 85
2021-01-30 05:00:00 7.3 21 Oeste 44 Oeste 1.2 889.4 -- 88
2021-01-30 04:00:00 7.6 17 Oeste 33 Sudoeste 0 890.3 -- 86
2021-01-30 03:00:00 7.9 11 Oeste 25 Oeste 0 891.6 -- 85
2021-01-30 02:00:00 7.9 12 Oeste 25 Sudoeste 0 892.1 -- 84
2021-01-30 01:00:00 7.9 12 Oeste 32 Sudoeste 0 893.1 -- 86
2021-01-30 00:00:00 8.1 13 Oeste 26 Oeste 0 893.7 -- 88
2021-01-29 23:00:00 6.2 4 Sur 12 Sur 0 894.5 -- 92
2021-01-29 22:00:00 6.7 4 Sur 13 Sur 0 894.9 -- 92
2021-01-29 21:00:00 7 10 Sur 13 Sur 0 895.5 -- 91
2021-01-29 20:00:00 7.8 3 Oeste 13 Este 0 896 -- 87
2021-01-29 19:00:00 8.8 5 Sudoeste 9 Sur 0 895.9 -- 85
2021-01-29 18:00:00 9.5 7 Sudoeste 15 Oeste 0 896.2 -- 81
2021-01-29 17:00:00 9.9 7 Oeste 80 Noroeste 0 896.4 -- 79
2021-01-29 16:00:00 9.4 7 Oeste 19 Oeste 0 896.6 -- 83
2021-01-29 15:00:00 8.8 8 Oeste 23 Sudoeste 0 897.4 -- 88
2021-01-29 14:00:00 9.6 14 Oeste 26 Sudoeste 0 897.8 -- 84
2021-01-29 13:00:00 8.9 13 Oeste 28 Oeste 0 898.6 -- 86
2021-01-29 12:00:00 8.3 11 Oeste 28 Oeste 0 898.9 -- 89
2021-01-29 11:00:00 8.1 12 Oeste 23 Oeste 0.2 898.7 -- 90
2021-01-29 10:00:00 8 13 Oeste 49 Sudoeste 0 898.6 -- 91
2021-01-29 09:00:00 8.2 18 Oeste 36 Oeste 0 898.2 -- 89
2021-01-29 08:00:00 8.5 13 Noroeste 36 Oeste 0 898.3 -- 86
2021-01-29 07:00:00 8.5 20 Oeste 39 Oeste 0 898.7 -- 87
2021-01-29 06:00:00 8.9 14 Oeste 32 Noroeste 0 897.6 -- 87
2021-01-29 05:00:00 9.2 17 Oeste 37 Sudoeste 0 898 -- 88
2021-01-29 04:00:00 9.7 22 Oeste 39 Sudoeste 0 898.3 -- 86
2021-01-29 03:00:00 10 22 Sudoeste 33 Sudoeste 0 898.6 -- 85
2021-01-29 02:00:00 10.4 13 Sudoeste 23 Sudoeste 0 899.2 -- 85
2021-01-29 01:00:00 10.8 9 Oeste 23 Sudoeste 0 899.3 -- 85
2021-01-29 00:00:00 11.5 10 Oeste 26 Oeste 0 899.3 -- 82
2021-01-28 23:00:00 11.7 15 Sudoeste 34 Oeste 0 899.2 -- 79
2021-01-28 22:00:00 11.7 18 Oeste 36 Oeste 0 899.3 -- 82
2021-01-28 21:00:00 12 18 Oeste 34 Oeste 0 899.2 -- 83
2021-01-28 20:00:00 9.5 3 Oeste 13 Sur 0 899.5 -- 89
2021-01-28 19:00:00 10.6 3 Sudeste 8 Sur 0 899.5 -- 87
2021-01-28 18:00:00 11.3 3 Este 5 Este 0 899.6 -- 84
2021-01-28 17:00:00 11.3 2 Noroeste 16 Noroeste 0 899.9 -- 84
2021-01-28 16:00:00 11.1 4 Nordeste 18 Este 0 900.1 -- 85
2021-01-28 15:00:00 10.4 0 Calma 9 Oeste 0 900.5 -- 89
2021-01-28 14:00:00 10.1 6 Oeste 23 Oeste 0 901.3 -- 89
2021-01-28 13:00:00 10.4 14 Oeste 26 Oeste 0 901.9 -- 88
2021-01-28 12:00:00 9.6 8 Noroeste 16 Oeste 0 902.4 -- 92
2021-01-28 11:00:00 9.1 5 Noroeste 8 Oeste 0 902.2 -- 94
2021-01-28 10:00:00 8.1 0 Calma 5 Noroeste 0 901.8 -- 93
2021-01-28 09:00:00 7.9 0 Calma 16 Sudeste 0 901.4 -- 93
2021-01-28 08:00:00 7.8 0 Calma 6 Este 0 900.8 -- 93
2021-01-28 07:00:00 7.8 2 Norte 6 Este 0 901.2 -- 93
2021-01-28 06:00:00 7.9 0 Calma 4 Este 0 901.1 -- 92
2021-01-28 05:00:00 8.3 4 Oeste 17 Sudoeste 0 901.8 -- 90
2021-01-28 04:00:00 8.6 12 Sudoeste 19 Sudoeste 0 901.5 -- 91
2021-01-28 03:00:00 9.1 11 Oeste 19 Sudoeste 0 902 -- 90
2021-01-28 02:00:00 8.6 4 Noroeste 12 Oeste 0 902.3 -- 92
2021-01-28 01:00:00 8.8 2 Sur 10 Sur 0 902.5 -- 91
2021-01-28 00:00:00 8.3 0 Calma 6 Sudoeste 0 902.7 -- 91
2021-01-27 23:00:00 8.1 2 Sudeste 6 Oeste 0 903.1 -- 91
2021-01-27 22:00:00 8.4 4 Sudoeste 15 Oeste 0 902.7 -- 87
2021-01-27 21:00:00 9.9 10 Sudoeste 23 Sudoeste 0 902.7 -- 85
2021-01-27 20:00:00 9.9 13 Sudoeste 33 Sudoeste 0 902.7 -- 87
2021-01-27 19:00:00 10.4 18 Sudoeste 30 Sudoeste 0 902.7 -- 87
2021-01-27 18:00:00 11.2 6 Oeste 12 Oeste 0 902.3 -- 85
2021-01-27 17:00:00 11.3 4 Noroeste 18 Noroeste 0 902.2 -- 82
2021-01-27 16:00:00 11.8 11 Oeste 20 Noroeste 0 902.3 -- 81
2021-01-27 15:00:00 11.6 13 Oeste 28 Oeste 0 902.2 -- 82
2021-01-27 14:00:00 11.2 10 Noroeste 22 Oeste 0 902.3 -- 86
2021-01-27 13:00:00 9.7 11 Oeste 21 Oeste 0 902.8 -- 97
2021-01-27 12:00:00 8.9 8 Oeste 22 Noroeste 0 903.1 -- 97
2021-01-27 11:00:00 8.6 13 Oeste 27 Noroeste 0 903.2 -- 97
2021-01-27 10:00:00 8.6 13 Oeste 22 Noroeste 0 902.4 -- 97
2021-01-27 09:00:00 8.6 10 Noroeste 22 Oeste 0 901.7 -- 97
2021-01-27 08:00:00 8.9 15 Oeste 29 Oeste 0.2 901.3 -- 97
2021-01-27 07:00:00 9.1 12 Oeste 22 Oeste 0.2 900.6 -- 97
2021-01-27 06:00:00 9.2 12 Noroeste 26 Noroeste 0.2 900.8 -- 97
2021-01-27 05:00:00 9.2 13 Oeste 24 Noroeste 0.2 900.3 -- 94
2021-01-27 04:00:00 7.3 0 Calma 17 Este 0.8 900.5 -- 94
2021-01-27 03:00:00 7.2 3 Sudoeste 4 Oeste 0.4 900.4 -- 94
2021-01-27 02:00:00 7.1 0 Calma 3 Este 1.6 900.5 -- 94
2021-01-27 01:00:00 7.3 0 Calma 4 Sudeste 1.6 900.8 -- 94
2021-01-27 00:00:00 7.4 3 Noroeste 8 Sur 0.4 901 -- 94
2021-01-26 23:00:00 7.7 7 Sur 10 Sur 0.4 900.8 -- 94
2021-01-26 22:00:00 7.7 7 Sur 10 Sur 0 900.7 -- 94
2021-01-26 21:00:00 7.4 7 Sur 10 Sur 0.2 900.7 -- 93
2021-01-26 20:00:00 7.7 0 Calma 4 Sudeste 0.2 900.7 -- 93
2021-01-26 19:00:00 8 2 Oeste 8 Oeste 0 900.2 -- 93
2021-01-26 18:00:00 8 3 Oeste 7 Oeste 0.2 899.8 -- 93
2021-01-26 17:00:00 8 3 Oeste 12 Norte 0.2 899.5 -- 93
2021-01-26 16:00:00 7.8 4 Noroeste 14 Noroeste 0.2 899.4 -- 93
2021-01-26 15:00:00 7.3 2 Noroeste 6 Noroeste 0.2 899.2 -- 93
2021-01-26 14:00:00 6.2 2 Nordeste 17 Este 0.2 899.4 -- 93
2021-01-26 13:00:00 5.5 0 Calma 5 Este 0 899.4 -- 94
2021-01-26 12:00:00 3.2 3 Este 8 Sur 0 899.9 -- 94
2021-01-26 11:00:00 1.7 6 Sur 9 Sur 0 899.6 -- 94
2021-01-26 10:00:00 0.8 7 Sur 9 Sur 0 898.9 -- 94
2021-01-26 09:00:00 0 3 Sudeste 9 Sur 0 898.7 -- 94
2021-01-26 08:00:00 -0.3 0 Calma 15 Este 0 898.2 -- 94
2021-01-26 07:00:00 -0.8 5 Sudeste 9 Sudeste 0 897.6 -- 94
2021-01-26 06:00:00 -1.8 2 Sudeste 6 Sur 0 897.8 -- 94
2021-01-26 05:00:00 -1.6 4 Sudeste 14 Sur 0 897.1 -- 94
2021-01-26 04:00:00 -1.9 2 Sudoeste 15 Nordeste 0 896.8 -- 94
2021-01-26 03:00:00 -1.1 4 Sur 8 Sur 0 896.4 -- 94
2021-01-26 02:00:00 -0.7 5 Sudoeste 15 Sur 0 896 -- 93
2021-01-26 01:00:00 -0.8 2 Sudoeste 20 Sur 0 895.7 -- 94
2021-01-26 00:00:00 -0.4 0 Calma 9 Sudeste 0 895.4 -- 94
2021-01-25 23:00:00 0.1 2 Oeste 6 Este 0 894.7 -- 93
2021-01-25 22:00:00 0.9 2 Este 10 Este 0 893.9 -- 91
2021-01-25 21:00:00 2.2 6 Este 25 Noroeste 0 892.9 -- 86
2021-01-25 20:00:00 4.3 14 Oeste 26 Oeste 0 892 -- 84
2021-01-25 19:00:00 4.5 9 Noroeste 19 Noroeste 0 891.1 -- 87
2021-01-25 18:00:00 6.1 8 Noroeste 23 Oeste 0 890.1 -- 82
2021-01-25 17:00:00 6.9 12 Oeste 24 Oeste 0 889 -- 80
2021-01-25 16:00:00 6.6 8 Noroeste 22 Norte 1 888.4 -- 87
2021-01-25 15:00:00 6.9 13 Noroeste 24 Oeste 2.2 887.7 -- 86
2021-01-25 14:00:00 7.6 15 Noroeste 41 Sudoeste 5.4 887.1 -- 88
2021-01-25 13:00:00 8.7 17 Oeste 39 Oeste 1.8 886.6 -- 90
2021-01-25 12:00:00 8.5 21 Oeste 55 Sudoeste 0.4 886.8 -- 90
2021-01-25 11:00:00 8.2 25 Oeste -- -- -- 886.7 -- 90
2021-01-25 10:00:00 -- -- -- -- -- -- -- -- --
2021-01-25 09:00:00 -- -- -- -- -- -- -- -- --
2021-01-25 08:00:00 -- -- -- -- -- -- -- -- --
2021-01-25 07:00:00 -- -- -- -- -- -- -- -- --
2021-01-25 06:00:00 -- -- -- -- -- -- -- -- --
2021-01-25 05:00:00 -- -- -- -- -- -- -- -- --
2021-01-25 04:00:00 -- -- -- -- -- -- -- -- --
2021-01-25 03:00:00 -- -- -- -- -- -- -- -- --
2021-01-25 02:00:00 -- -- -- -- -- -- -- -- --
2021-01-25 01:00:00 -- -- -- -- -- -- -- -- --
2021-01-25 00:00:00 -- -- -- -- -- -- -- -- --